Time,TemperatureF,DewpointF,PressureIn,WindDirection,WindDirectionDegrees,WindSpeedMPH,WindSpeedGustMPH,Humidity,HourlyPrecipIn,Conditions,Clouds,dailyrainin,SoftwareType,DateUTC
2013-02-13 00:00:00,48.2,46.3,30.41,ENE,72,0.0,1.0,93,0.00,,OVC021,0.14,VWS V14.01,2013-02-13 08:00:00,
2013-02-13 00:01:00,48.2,46.3,30.41,ENE,73,0.0,1.0,93,0.00,,OVC021,0.00,VWS V14.01,2013-02-13 08:01:00,
2013-02-13 00:02:00,48.2,46.3,30.41,ENE,73,0.0,0.0,93,0.00,,OVC021,0.00,VWS V14.01,2013-02-13 08:02:00,
2013-02-13 00:03:00,48.1,46.2,30.41,ENE,72,0.0,0.0,93,0.00,,OVC021,0.00,VWS V14.01,2013-02-13 08:03:00,
2013-02-13 00:04:00,48.1,46.2,30.41,ENE,73,1.0,1.0,93,0.00,,OVC021,0.00,VWS V14.01,2013-02-13 08:04:00,
2013-02-13 00:05:00,48.2,46.3,30.41,ENE,72,0.0,1.0,93,0.00,,OVC021,0.00,VWS V14.01,2013-02-13 08:05:00,
2013-02-13 00:06:00,48.1,46.2,30.41,ENE,72,0.0,1.0,93,0.00,,OVC021,0.00,VWS V14.01,2013-02-13 08:06:00,
2013-02-13 00:07:00,48.1,46.2,30.41,ENE,72,1.0,1.0,93,0.00,,OVC021,0.00,VWS V14.01,2013-02-13 08:07:00,
2013-02-13 00:08:00,48.1,46.2,30.41,ENE,73,0.0,1.0,93,0.00,,OVC021,0.00,VWS V14.01,2013-02-13 08:08:00,
2013-02-13 00:09:00,48.1,46.2,30.41,ENE,72,0.0,1.0,93,0.00,,OVC021,0.00,VWS V14.01,2013-02-13 08:09:00,
2013-02-13 00:10:00,48.1,46.2,30.41,ENE,73,0.0,1.0,93,0.00,,OVC021,0.00,VWS V14.01,2013-02-13 08:10:00,
2013-02-13 00:11:00,48.0,46.1,30.41,NNW,330,1.0,4.0,93,0.00,,OVC021,0.00,VWS V14.01,2013-02-13 08:11:00,
2013-02-13 00:12:00,48.0,46.1,30.41,NE,44,1.0,4.0,93,0.00,,OVC021,0.00,VWS V14.01,2013-02-13 08:12:00,
2013-02-13 00:13:00,48.0,46.1,30.41,NE,46,0.0,2.0,93,0.00,,OVC021,0.00,VWS V14.01,2013-02-13 08:13:00,
2013-02-13 00:14:00,48.0,46.1,30.41,NE,46,2.0,2.0,93,0.00,,OVC021,0.00,VWS V14.01,2013-02-13 08:14:00,
2013-02-13 00:15:00,48.0,46.1,30.41,NE,46,1.0,4.0,93,0.00,,OVC021,0.00,VWS V14.01,2013-02-13 08:15:00,
2013-02-13 00:16:00,48.0,46.1,30.41,NE,46,0.0,1.0,93,0.00,,OVC021,0.00,VWS V14.01,2013-02-13 08:16:00,
2013-02-13 00:17:00,48.0,46.1,30.41,NE,46,0.0,1.0,93,0.00,,OVC021,0.00,VWS V14.01,2013-02-13 08:17:00,
2013-02-13 00:18:00,48.0,46.4,30.41,NE,46,0.0,0.0,94,0.00,,OVC021,0.00,VWS V14.01,2013-02-13 08:18:00,
2013-02-13 00:19:00,48.0,46.1,30.41,NE,46,0.0,1.0,93,0.00,,OVC021,0.00,VWS V14.01,2013-02-13 08:19:00,
2013-02-13 00:20:00,48.0,46.4,30.41,NE,46,0.0,0.0,94,0.00,,OVC021,0.00,VWS V14.01,2013-02-13 08:20:00,
2013-02-13 00:21:00,48.0,46.4,30.41,NE,46,0.0,0.0,94,0.00,,OVC021,0.00,VWS V14.01,2013-02-13 08:21:00,
2013-02-13 00:22:00,48.0,46.4,30.41,NE,46,0.0,0.0,94,0.00,,OVC021,0.00,VWS V14.01,2013-02-13 08:22:00,
2013-02-13 00:23:00,48.0,46.4,30.41,NE,46,0.0,0.0,94,0.00,,OVC021,0.00,VWS V14.01,2013-02-13 08:23:00,
2013-02-13 00:24:00,48.0,46.4,30.41,NE,46,0.0,0.0,94,0.00,,OVC021,0.00,VWS V14.01,2013-02-13 08:24:00,
2013-02-13 00:25:00,47.9,46.3,30.41,NE,46,0.0,1.0,94,0.00,,OVC021,0.00,VWS V14.01,2013-02-13 08:25:00,
2013-02-13 00:26:00,47.9,46.3,30.41,NE,46,0.0,1.0,94,0.00,,OVC021,0.00,VWS V14.01,2013-02-13 08:26:00,
2013-02-13 00:27:00,47.9,46.3,30.41,NE,46,0.0,1.0,94,0.00,,OVC021,0.00,VWS V14.01,2013-02-13 08:27:00,
2013-02-13 00:28:00,47.8,46.2,30.41,NE,46,0.0,0.0,94,0.00,,OVC021,0.00,VWS V14.01,2013-02-13 08:28:00,
2013-02-13 00:29:00,47.8,46.2,30.41,NE,46,0.0,0.0,94,0.00,,OVC021,0.00,VWS V14.01,2013-02-13 08:29:00,
2013-02-13 00:30:00,47.9,46.3,30.41,NE,46,0.0,1.0,94,0.00,,OVC021,0.00,VWS V14.01,2013-02-13 08:30:00,
2013-02-13 00:31:00,47.7,46.1,30.41,NE,46,0.0,0.0,94,0.00,,OVC021,0.00,VWS V14.01,2013-02-13 08:31:00,
2013-02-13 00:32:00,47.7,46.1,30.41,NE,46,0.0,0.0,94,0.00,,OVC021,0.00,VWS V14.01,2013-02-13 08:32:00,
2013-02-13 00:33:00,47.7,46.1,30.41,NE,45,0.0,0.0,94,0.00,,OVC021,0.00,VWS V14.01,2013-02-13 08:33:00,
2013-02-13 00:34:00,47.6,46.0,30.41,NE,45,0.0,0.0,94,0.00,,OVC021,0.00,VWS V14.01,2013-02-13 08:34:00,
2013-02-13 00:35:00,47.7,46.1,30.41,NE,46,0.0,0.0,94,0.00,,OVC021,0.00,VWS V14.01,2013-02-13 08:35:00,
2013-02-13 00:36:00,47.5,46.1,30.41,NE,46,0.0,0.0,95,0.00,,OVC021,0.00,VWS V14.01,2013-02-13 08:36:00,
2013-02-13 00:37:00,47.5,46.1,30.41,NE,46,0.0,0.0,95,0.00,,OVC021,0.00,VWS V14.01,2013-02-13 08:37:00,
2013-02-13 00:38:00,47.4,46.0,30.41,NE,46,0.0,0.0,95,0.00,,OVC021,0.00,VWS V14.01,2013-02-13 08:38:00,
2013-02-13 00:39:00,47.4,46.0,30.41,NE,46,0.0,0.0,95,0.00,,OVC021,0.00,VWS V14.01,2013-02-13 08:39:00,
2013-02-13 00:40:00,47.5,46.1,30.41,NE,46,0.0,0.0,95,0.00,,OVC021,0.00,VWS V14.01,2013-02-13 08:40:00,
2013-02-13 00:41:00,47.3,45.9,30.41,NE,46,0.0,0.0,95,0.00,,OVC021,0.00,VWS V14.01,2013-02-13 08:41:00,
2013-02-13 00:42:00,47.3,45.9,30.41,NE,45,0.0,0.0,95,0.00,,OVC021,0.00,VWS V14.01,2013-02-13 08:42:00,
2013-02-13 00:43:00,47.2,45.8,30.41,NE,46,0.0,0.0,95,0.00,,OVC021,0.00,VWS V14.01,2013-02-13 08:43:00,
2013-02-13 00:44:00,47.2,45.8,30.41,NE,46,0.0,0.0,95,0.00,,OVC021,0.00,VWS V14.01,2013-02-13 08:44:00,
2013-02-13 00:45:00,47.3,45.9,30.41,NE,46,0.0,0.0,95,0.00,,OVC019,0.00,VWS V14.01,2013-02-13 08:45:00,
2013-02-13 00:46:00,47.1,45.7,30.42,NE,46,0.0,0.0,95,0.00,,OVC021,0.00,VWS V14.01,2013-02-13 08:46:00,
2013-02-13 00:47:00,47.1,45.7,30.41,NE,46,0.0,0.0,95,0.00,,OVC021,0.00,VWS V14.01,2013-02-13 08:47:00,
2013-02-13 00:48:00,47.1,45.7,30.41,NE,46,0.0,0.0,95,0.00,,OVC021,0.00,VWS V14.01,2013-02-13 08:48:00,
2013-02-13 00:49:00,47.0,45.7,30.41,NE,46,0.0,0.0,95,0.00,,OVC021,0.00,VWS V14.01,2013-02-13 08:49:00,
2013-02-13 00:50:00,47.1,45.7,30.41,NE,46,0.0,0.0,95,0.00,,OVC019,0.00,VWS V14.01,2013-02-13 08:50:00,
2013-02-13 00:51:00,46.9,45.5,30.41,NE,46,0.0,0.0,95,0.00,,OVC021,0.00,VWS V14.01,2013-02-13 08:51:00,
2013-02-13 00:52:00,46.9,45.5,30.41,NE,46,0.0,0.0,95,0.00,,OVC021,0.00,VWS V14.01,2013-02-13 08:52:00,
2013-02-13 00:53:00,46.8,45.5,30.41,NE,46,0.0,0.0,95,0.00,,OVC021,0.00,VWS V14.01,2013-02-13 08:53:00,
2013-02-13 00:54:00,46.8,45.5,30.41,NE,45,0.0,0.0,95,0.00,,OVC021,0.00,VWS V14.01,2013-02-13 08:54:00,
2013-02-13 00:55:00,46.9,45.5,30.41,NE,46,0.0,0.0,95,0.00,,OVC019,0.00,VWS V14.01,2013-02-13 08:55:00,
2013-02-13 00:56:00,46.7,45.3,30.41,NE,46,0.0,0.0,95,0.00,,OVC021,0.00,VWS V14.01,2013-02-13 08:56:00,
2013-02-13 00:57:00,46.7,45.3,30.41,NE,46,0.0,0.0,95,0.00,,OVC021,0.00,VWS V14.01,2013-02-13 08:57:00,
2013-02-13 00:58:00,46.7,45.3,30.41,NE,46,0.0,0.0,95,0.00,,OVC021,0.00,VWS V14.01,2013-02-13 08:58:00,
2013-02-13 00:59:00,46.6,45.2,30.41,NE,46,0.0,0.0,95,0.00,,OVC021,0.00,VWS V14.01,2013-02-13 08:59:00,
2013-02-13 01:00:00,46.7,45.3,30.41,NE,46,0.0,0.0,95,0.00,,OVC019,0.00,VWS V14.01,2013-02-13 09:00:00,
2013-02-13 01:01:00,46.6,45.5,30.41,NE,46,0.0,0.0,96,0.00,,OVC021,0.00,VWS V14.01,2013-02-13 09:01:00,
2013-02-13 01:02:00,46.6,45.5,30.41,NE,46,0.0,0.0,96,0.00,,OVC021,0.00,VWS V14.01,2013-02-13 09:02:00,
2013-02-13 01:03:00,46.5,45.4,30.41,NE,46,0.0,0.0,96,0.00,,OVC021,0.00,VWS V14.01,2013-02-13 09:03:00,
2013-02-13 01:04:00,46.6,45.5,30.41,NE,46,0.0,0.0,96,0.00,,OVC019,0.00,VWS V14.01,2013-02-13 09:04:00,
2013-02-13 01:05:00,46.4,45.3,30.41,NE,46,0.0,0.0,96,0.00,,OVC021,0.00,VWS V14.01,2013-02-13 09:05:00,
2013-02-13 01:06:00,46.4,45.3,30.41,NE,46,0.0,0.0,96,0.00,,OVC021,0.00,VWS V14.01,2013-02-13 09:06:00,
2013-02-13 01:07:00,46.4,45.3,30.41,NE,46,1.0,1.0,96,0.00,,OVC021,0.00,VWS V14.01,2013-02-13 09:07:00,
2013-02-13 01:08:00,46.4,45.3,30.41,NE,46,0.0,1.0,96,0.00,,OVC021,0.00,VWS V14.01,2013-02-13 09:08:00,
2013-02-13 01:09:00,46.4,45.3,30.41,NE,46,0.0,0.0,96,0.00,,OVC019,0.00,VWS V14.01,2013-02-13 09:09:00,
2013-02-13 01:10:00,46.4,45.3,30.41,NE,46,0.0,0.0,96,0.00,,OVC021,0.00,VWS V14.01,2013-02-13 09:10:00,
2013-02-13 01:11:00,46.4,45.3,30.41,NE,46,0.0,1.0,96,0.00,,OVC021,0.00,VWS V14.01,2013-02-13 09:11:00,
2013-02-13 01:12:00,46.4,45.3,30.41,NE,46,0.0,1.0,96,0.00,,OVC021,0.00,VWS V14.01,2013-02-13 09:12:00,
2013-02-13 01:13:00,46.3,45.2,30.42,NE,46,0.0,0.0,96,0.00,,OVC021,0.00,VWS V14.01,2013-02-13 09:13:00,
2013-02-13 01:14:00,46.4,45.3,30.41,NE,46,0.0,1.0,96,0.00,,OVC019,0.00,VWS V14.01,2013-02-13 09:14:00,
2013-02-13 01:15:00,46.3,45.2,30.41,NE,46,0.0,0.0,96,0.00,,OVC021,0.00,VWS V14.01,2013-02-13 09:15:00,
2013-02-13 01:16:00,46.3,45.2,30.41,NE,46,0.0,0.0,96,0.00,,OVC021,0.00,VWS V14.01,2013-02-13 09:16:00,
2013-02-13 01:17:00,46.3,45.2,30.41,NE,46,0.0,0.0,96,0.00,,OVC021,0.00,VWS V14.01,2013-02-13 09:17:00,
2013-02-13 01:18:00,46.3,45.2,30.41,NE,46,0.0,0.0,96,0.00,,OVC021,0.00,VWS V14.01,2013-02-13 09:18:00,
2013-02-13 01:19:00,46.3,45.2,30.41,NE,46,0.0,0.0,96,0.00,,OVC019,0.00,VWS V14.01,2013-02-13 09:19:00,
2013-02-13 01:20:00,46.2,45.1,30.41,NE,46,0.0,0.0,96,0.00,,OVC021,0.00,VWS V14.01,2013-02-13 09:20:00,
2013-02-13 01:21:00,46.1,45.0,30.41,NE,46,0.0,0.0,96,0.00,,OVC021,0.00,VWS V14.01,2013-02-13 09:21:00,
2013-02-13 01:22:00,46.1,45.0,30.41,NE,46,0.0,0.0,96,0.00,,OVC021,0.00,VWS V14.01,2013-02-13 09:22:00,
2013-02-13 01:23:00,46.1,45.0,30.41,NE,46,0.0,0.0,96,0.00,,OVC021,0.00,VWS V14.01,2013-02-13 09:23:00,
2013-02-13 01:24:00,46.1,45.0,30.41,NE,46,0.0,0.0,96,0.00,,OVC047,0.00,VWS V14.01,2013-02-13 09:24:00,
2013-02-13 01:25:00,46.0,44.9,30.41,NE,46,0.0,0.0,96,0.00,,OVC021,0.00,VWS V14.01,2013-02-13 09:25:00,
2013-02-13 01:26:00,46.0,44.9,30.41,NE,46,0.0,0.0,96,0.00,,OVC021,0.00,VWS V14.01,2013-02-13 09:26:00,
2013-02-13 01:27:00,45.9,44.8,30.41,NE,46,0.0,0.0,96,0.00,,OVC021,0.00,VWS V14.01,2013-02-13 09:27:00,
2013-02-13 01:28:00,45.9,44.8,30.41,NE,46,0.0,0.0,96,0.00,,OVC021,0.00,VWS V14.01,2013-02-13 09:28:00,
2013-02-13 01:29:00,46.0,44.9,30.41,NE,46,0.0,0.0,96,0.00,,OVC047,0.00,VWS V14.01,2013-02-13 09:29:00,
2013-02-13 01:30:00,45.8,44.7,30.41,NE,46,0.0,0.0,96,0.00,,OVC021,0.00,VWS V14.01,2013-02-13 09:30:00,
2013-02-13 01:31:00,45.8,44.7,30.41,NE,46,0.0,0.0,96,0.00,,OVC021,0.00,VWS V14.01,2013-02-13 09:31:00,
2013-02-13 01:32:00,45.8,44.7,30.40,NE,46,0.0,0.0,96,0.00,,OVC021,0.00,VWS V14.01,2013-02-13 09:32:00,
2013-02-13 01:33:00,45.7,44.6,30.40,NE,46,0.0,0.0,96,0.00,,OVC021,0.00,VWS V14.01,2013-02-13 09:33:00,
2013-02-13 01:34:00,45.8,44.7,30.40,NE,46,0.0,0.0,96,0.00,,OVC047,0.00,VWS V14.01,2013-02-13 09:34:00,
2013-02-13 01:35:00,45.6,44.5,30.40,NE,46,0.0,0.0,96,0.00,,OVC021,0.00,VWS V14.01,2013-02-13 09:35:00,
2013-02-13 01:36:00,45.5,44.4,30.40,NE,46,0.0,0.0,96,0.00,,OVC021,0.00,VWS V14.01,2013-02-13 09:36:00,
2013-02-13 01:37:00,45.5,44.4,30.40,NE,46,0.0,0.0,96,0.00,,OVC021,0.00,VWS V14.01,2013-02-13 09:37:00,
2013-02-13 01:38:00,45.4,44.3,30.40,NE,46,0.0,0.0,96,0.00,,OVC021,0.00,VWS V14.01,2013-02-13 09:38:00,
2013-02-13 01:39:00,45.5,44.4,30.40,NE,46,0.0,0.0,96,0.00,,OVC047,0.00,VWS V14.01,2013-02-13 09:39:00,
2013-02-13 01:40:00,45.4,44.3,30.41,NE,46,0.0,0.0,96,0.00,,OVC021,0.00,VWS V14.01,2013-02-13 09:40:00,
2013-02-13 01:41:00,45.4,44.3,30.41,NE,46,0.0,0.0,96,0.00,,OVC021,0.00,VWS V14.01,2013-02-13 09:41:00,
2013-02-13 01:42:00,45.3,44.2,30.41,NE,46,0.0,0.0,96,0.00,,OVC021,0.00,VWS V14.01,2013-02-13 09:42:00,
2013-02-13 01:43:00,45.3,44.2,30.41,NE,46,0.0,0.0,96,0.00,,OVC021,0.00,VWS V14.01,2013-02-13 09:43:00,
2013-02-13 01:44:00,45.3,44.2,30.41,NE,46,0.0,0.0,96,0.00,,OVC045,0.00,VWS V14.01,2013-02-13 09:44:00,
2013-02-13 01:45:00,45.2,44.1,30.41,NE,46,0.0,0.0,96,0.00,,OVC021,0.00,VWS V14.01,2013-02-13 09:45:00,
2013-02-13 01:46:00,45.1,44.0,30.41,NE,46,0.0,0.0,96,0.00,,OVC021,0.00,VWS V14.01,2013-02-13 09:46:00,
2013-02-13 01:47:00,45.1,44.0,30.41,NE,46,0.0,0.0,96,0.00,,OVC021,0.00,VWS V14.01,2013-02-13 09:47:00,
2013-02-13 01:48:00,45.1,44.0,30.41,NE,46,0.0,0.0,96,0.00,,OVC021,0.00,VWS V14.01,2013-02-13 09:48:00,
2013-02-13 01:49:00,45.1,44.0,30.41,NE,46,0.0,0.0,96,0.00,,OVC045,0.00,VWS V14.01,2013-02-13 09:49:00,
2013-02-13 01:50:00,45.1,44.0,30.41,NE,46,0.0,0.0,96,0.00,,OVC021,0.00,VWS V14.01,2013-02-13 09:50:00,
2013-02-13 01:51:00,45.1,44.0,30.41,NE,46,0.0,0.0,96,0.00,,OVC021,0.00,VWS V14.01,2013-02-13 09:51:00,
2013-02-13 01:52:00,45.1,44.0,30.41,NE,46,0.0,0.0,96,0.00,,OVC021,0.00,VWS V14.01,2013-02-13 09:52:00,
2013-02-13 01:53:00,45.1,44.0,30.41,NE,46,0.0,0.0,96,0.00,,OVC021,0.00,VWS V14.01,2013-02-13 09:53:00,
2013-02-13 01:54:00,45.1,44.0,30.41,NE,46,0.0,0.0,96,0.00,,OVC045,0.00,VWS V14.01,2013-02-13 09:54:00,
2013-02-13 01:55:00,45.1,44.0,30.41,NE,46,0.0,0.0,96,0.00,,OVC021,0.00,VWS V14.01,2013-02-13 09:55:00,
2013-02-13 01:56:00,45.2,44.1,30.41,NE,46,0.0,0.0,96,0.00,,OVC021,0.00,VWS V14.01,2013-02-13 09:56:00,
2013-02-13 01:57:00,45.1,44.0,30.41,NE,46,0.0,0.0,96,0.00,,OVC021,0.00,VWS V14.01,2013-02-13 09:57:00,
2013-02-13 01:58:00,45.1,44.0,30.41,NE,46,0.0,0.0,96,0.00,,OVC021,0.00,VWS V14.01,2013-02-13 09:58:00,
2013-02-13 01:59:00,45.2,44.1,30.41,NE,46,0.0,0.0,96,0.00,,OVC045,0.00,VWS V14.01,2013-02-13 09:59:00,
2013-02-13 02:00:00,45.0,43.9,30.41,NE,46,0.0,0.0,96,0.00,,OVC021,0.00,VWS V14.01,2013-02-13 10:00:00,
2013-02-13 02:01:00,45.0,43.9,30.41,NE,46,0.0,0.0,96,0.00,,OVC021,0.00,VWS V14.01,2013-02-13 10:01:00,
2013-02-13 02:02:00,45.0,43.9,30.41,NE,46,0.0,0.0,96,0.00,,OVC021,0.00,VWS V14.01,2013-02-13 10:02:00,
2013-02-13 02:03:00,45.0,43.9,30.41,NE,46,0.0,0.0,96,0.00,,OVC021,0.00,VWS V14.01,2013-02-13 10:03:00,
2013-02-13 02:04:00,45.0,43.9,30.41,NE,46,0.0,0.0,96,0.00,,OVC043,0.00,VWS V14.01,2013-02-13 10:04:00,
2013-02-13 02:05:00,44.9,43.8,30.41,NE,46,0.0,0.0,96,0.00,,OVC021,0.00,VWS V14.01,2013-02-13 10:05:00,
2013-02-13 02:06:00,44.9,43.8,30.41,NE,46,0.0,0.0,96,0.00,,OVC021,0.00,VWS V14.01,2013-02-13 10:06:00,
2013-02-13 02:07:00,44.9,43.8,30.41,NE,46,0.0,0.0,96,0.00,,OVC021,0.00,VWS V14.01,2013-02-13 10:07:00,
2013-02-13 02:08:00,44.8,43.7,30.41,NE,46,0.0,0.0,96,0.00,,OVC021,0.00,VWS V14.01,2013-02-13 10:08:00,
2013-02-13 02:09:00,44.9,43.8,30.41,NE,46,0.0,0.0,96,0.00,,OVC043,0.00,VWS V14.01,2013-02-13 10:09:00,
2013-02-13 02:10:00,44.8,43.7,30.41,NE,46,0.0,0.0,96,0.00,,OVC021,0.00,VWS V14.01,2013-02-13 10:10:00,
2013-02-13 02:11:00,44.7,43.6,30.41,NE,46,0.0,0.0,96,0.00,,OVC021,0.00,VWS V14.01,2013-02-13 10:11:00,
2013-02-13 02:12:00,44.7,43.6,30.41,NE,45,0.0,1.0,96,0.00,,OVC021,0.00,VWS V14.01,2013-02-13 10:12:00,
2013-02-13 02:13:00,44.6,43.5,30.41,NE,46,1.0,1.0,96,0.00,,OVC021,0.00,VWS V14.01,2013-02-13 10:13:00,
2013-02-13 02:14:00,44.7,43.6,30.41,NE,46,0.0,0.0,96,0.00,,OVC043,0.00,VWS V14.01,2013-02-13 10:14:00,
2013-02-13 02:15:00,44.6,43.5,30.41,NE,46,0.0,0.0,96,0.00,,OVC021,0.00,VWS V14.01,2013-02-13 10:15:00,
2013-02-13 02:16:00,44.5,43.4,30.41,NE,45,0.0,0.0,96,0.00,,OVC021,0.00,VWS V14.01,2013-02-13 10:16:00,
2013-02-13 02:17:00,44.5,43.4,30.41,NE,46,0.0,0.0,96,0.00,,OVC021,0.00,VWS V14.01,2013-02-13 10:17:00,
2013-02-13 02:18:00,44.4,43.3,30.41,NE,46,0.0,0.0,96,0.00,,OVC021,0.00,VWS V14.01,2013-02-13 10:18:00,
2013-02-13 02:19:00,44.5,43.4,30.41,NE,45,0.0,0.0,96,0.00,,OVC043,0.00,VWS V14.01,2013-02-13 10:19:00,
2013-02-13 02:20:00,44.4,43.3,30.41,NE,46,0.0,0.0,96,0.00,,OVC021,0.00,VWS V14.01,2013-02-13 10:20:00,
2013-02-13 02:21:00,44.5,43.4,30.41,NE,46,0.0,0.0,96,0.00,,OVC021,0.00,VWS V14.01,2013-02-13 10:21:00,
2013-02-13 02:22:00,44.5,43.4,30.41,NE,46,0.0,0.0,96,0.00,,OVC021,0.00,VWS V14.01,2013-02-13 10:22:00,
2013-02-13 02:23:00,44.5,43.4,30.41,NE,46,0.0,0.0,96,0.00,,OVC021,0.00,VWS V14.01,2013-02-13 10:23:00,
2013-02-13 02:24:00,44.5,43.4,30.41,NE,46,0.0,0.0,96,0.00,,OVC021,0.00,VWS V14.01,2013-02-13 10:24:00,
2013-02-13 02:25:00,44.5,43.4,30.41,NE,46,0.0,0.0,96,0.00,,OVC021,0.00,VWS V14.01,2013-02-13 10:25:00,
2013-02-13 02:26:00,44.4,43.3,30.41,NE,46,0.0,0.0,96,0.00,,OVC021,0.00,VWS V14.01,2013-02-13 10:26:00,
2013-02-13 02:27:00,44.4,43.3,30.41,NE,46,0.0,0.0,96,0.00,,OVC021,0.00,VWS V14.01,2013-02-13 10:27:00,
2013-02-13 02:28:00,44.3,43.2,30.41,NE,46,0.0,0.0,96,0.00,,OVC021,0.00,VWS V14.01,2013-02-13 10:28:00,
2013-02-13 02:29:00,44.4,43.3,30.41,NE,46,0.0,0.0,96,0.00,,OVC021,0.00,VWS V14.01,2013-02-13 10:29:00,
2013-02-13 02:30:00,44.1,43.0,30.41,NE,46,0.0,0.0,96,0.00,,OVC021,0.00,VWS V14.01,2013-02-13 10:30:00,
2013-02-13 02:31:00,44.1,43.0,30.41,NE,46,1.0,1.0,96,0.00,,OVC021,0.00,VWS V14.01,2013-02-13 10:31:00,
2013-02-13 02:32:00,44.1,43.0,30.41,NE,46,0.0,1.0,96,0.00,,OVC021,0.00,VWS V14.01,2013-02-13 10:32:00,
2013-02-13 02:33:00,44.0,42.9,30.40,NE,46,1.0,1.0,96,0.00,,OVC021,0.00,VWS V14.01,2013-02-13 10:33:00,
2013-02-13 02:34:00,44.1,43.0,30.41,NE,46,1.0,1.0,96,0.00,,OVC021,0.00,VWS V14.01,2013-02-13 10:34:00,
2013-02-13 02:35:00,43.9,42.8,30.40,NE,46,0.0,0.0,96,0.00,,OVC021,0.00,VWS V14.01,2013-02-13 10:35:00,
2013-02-13 02:36:00,43.8,42.7,30.41,NE,46,0.0,0.0,96,0.00,,OVC021,0.00,VWS V14.01,2013-02-13 10:36:00,
2013-02-13 02:37:00,43.8,42.7,30.41,NE,46,0.0,0.0,96,0.00,,OVC021,0.00,VWS V14.01,2013-02-13 10:37:00,
2013-02-13 02:38:00,43.7,42.6,30.40,NE,46,0.0,0.0,96,0.00,,OVC021,0.00,VWS V14.01,2013-02-13 10:38:00,
2013-02-13 02:39:00,43.8,42.7,30.41,NE,46,0.0,0.0,96,0.00,,OVC021,0.00,VWS V14.01,2013-02-13 10:39:00,
2013-02-13 02:40:00,43.6,42.5,30.40,NE,46,0.0,0.0,96,0.00,,OVC021,0.00,VWS V14.01,2013-02-13 10:40:00,
2013-02-13 02:41:00,43.6,42.5,30.40,NE,46,0.0,0.0,96,0.00,,OVC021,0.00,VWS V14.01,2013-02-13 10:41:00,
2013-02-13 02:42:00,43.6,42.5,30.40,NE,46,0.0,0.0,96,0.00,,OVC021,0.00,VWS V14.01,2013-02-13 10:42:00,
2013-02-13 02:43:00,43.5,42.4,30.40,NE,45,0.0,0.0,96,0.00,,OVC021,0.00,VWS V14.01,2013-02-13 10:43:00,
2013-02-13 02:44:00,43.6,42.5,30.40,NE,46,0.0,0.0,96,0.00,,OVC021,0.00,VWS V14.01,2013-02-13 10:44:00,
2013-02-13 02:45:00,43.5,42.4,30.40,NE,46,0.0,0.0,96,0.00,,OVC021,0.00,VWS V14.01,2013-02-13 10:45:00,
2013-02-13 02:46:00,43.4,42.3,30.40,NE,46,0.0,0.0,96,0.00,,OVC021,0.00,VWS V14.01,2013-02-13 10:46:00,
2013-02-13 02:47:00,43.4,42.3,30.40,NE,46,0.0,0.0,96,0.00,,OVC021,0.00,VWS V14.01,2013-02-13 10:47:00,
2013-02-13 02:48:00,43.3,42.2,30.40,NE,46,0.0,0.0,96,0.00,,OVC021,0.00,VWS V14.01,2013-02-13 10:48:00,
2013-02-13 02:49:00,43.4,42.3,30.40,NE,46,0.0,0.0,96,0.00,,OVC021,0.00,VWS V14.01,2013-02-13 10:49:00,
2013-02-13 02:50:00,43.3,42.2,30.40,NE,46,0.0,0.0,96,0.00,,OVC021,0.00,VWS V14.01,2013-02-13 10:50:00,
2013-02-13 02:51:00,43.2,42.1,30.40,NE,46,0.0,0.0,96,0.00,,OVC021,0.00,VWS V14.01,2013-02-13 10:51:00,
2013-02-13 02:52:00,43.2,42.1,30.40,NE,46,0.0,0.0,96,0.00,,OVC021,0.00,VWS V14.01,2013-02-13 10:52:00,
2013-02-13 02:53:00,43.2,42.1,30.40,NE,46,0.0,0.0,96,0.00,,OVC021,0.00,VWS V14.01,2013-02-13 10:53:00,
2013-02-13 02:54:00,43.2,42.1,30.40,NE,46,0.0,0.0,96,0.00,,OVC021,0.00,VWS V14.01,2013-02-13 10:54:00,
2013-02-13 02:55:00,43.2,42.1,30.40,NE,46,0.0,1.0,96,0.00,,OVC021,0.00,VWS V14.01,2013-02-13 10:55:00,
2013-02-13 02:56:00,43.2,42.1,30.40,NE,46,0.0,0.0,96,0.00,,OVC021,0.00,VWS V14.01,2013-02-13 10:56:00,
2013-02-13 02:57:00,43.2,42.1,30.40,NE,46,0.0,0.0,96,0.00,,OVC021,0.00,VWS V14.01,2013-02-13 10:57:00,
2013-02-13 02:58:00,43.1,42.0,30.40,NE,46,0.0,0.0,96,0.00,,OVC021,0.00,VWS V14.01,2013-02-13 10:58:00,
2013-02-13 02:59:00,43.2,42.1,30.40,NE,46,0.0,0.0,96,0.00,,OVC021,0.00,VWS V14.01,2013-02-13 10:59:00,
2013-02-13 03:00:00,43.0,41.9,30.40,ENE,77,1.0,1.0,96,0.00,,OVC021,0.00,VWS V14.01,2013-02-13 11:00:00,
2013-02-13 03:01:00,42.9,41.8,30.40,ENE,76,0.0,1.0,96,0.00,,OVC021,0.00,VWS V14.01,2013-02-13 11:01:00,
2013-02-13 03:02:00,42.8,41.7,30.40,ENE,77,1.0,1.0,96,0.00,,OVC021,0.00,VWS V14.01,2013-02-13 11:02:00,
2013-02-13 03:03:00,42.6,41.5,30.40,ENE,76,0.0,1.0,96,0.00,,OVC021,0.00,VWS V14.01,2013-02-13 11:03:00,
2013-02-13 03:04:00,42.9,41.8,30.40,ENE,76,0.0,1.0,96,0.00,,OVC021,0.00,VWS V14.01,2013-02-13 11:04:00,
2013-02-13 03:05:00,42.5,41.4,30.40,ENE,76,0.0,0.0,96,0.00,,OVC021,0.00,VWS V14.01,2013-02-13 11:05:00,
2013-02-13 03:06:00,42.5,41.4,30.40,ENE,77,0.0,0.0,96,0.00,,OVC021,0.00,VWS V14.01,2013-02-13 11:06:00,
2013-02-13 03:07:00,42.5,41.4,30.40,ENE,76,0.0,0.0,96,0.00,,OVC021,0.00,VWS V14.01,2013-02-13 11:07:00,
2013-02-13 03:08:00,42.5,41.4,30.40,ENE,77,0.0,0.0,96,0.00,,OVC021,0.00,VWS V14.01,2013-02-13 11:08:00,
2013-02-13 03:09:00,42.5,41.4,30.40,ENE,76,0.0,0.0,96,0.00,,OVC021,0.00,VWS V14.01,2013-02-13 11:09:00,
2013-02-13 03:10:00,42.5,41.4,30.40,ENE,76,0.0,0.0,96,0.00,,OVC021,0.00,VWS V14.01,2013-02-13 11:10:00,
2013-02-13 03:11:00,42.4,41.3,30.40,ENE,77,0.0,0.0,96,0.00,,OVC021,0.00,VWS V14.01,2013-02-13 11:11:00,
2013-02-13 03:14:00,42.4,41.3,30.40,ENE,77,0.0,0.0,96,0.00,,OVC021,0.00,VWS V14.01,2013-02-13 11:14:00,
2013-02-13 03:21:00,42.4,41.3,30.40,ENE,68,0.0,1.0,96,0.00,,OVC021,0.00,VWS V14.01,2013-02-13 11:21:00,
2013-02-13 03:26:00,42.0,40.9,30.40,ENE,77,0.0,1.0,96,0.00,,OVC021,0.00,VWS V14.01,2013-02-13 11:26:00,
2013-02-13 03:31:00,42.2,41.1,30.40,ENE,77,0.0,0.0,96,0.00,,OVC021,0.00,VWS V14.01,2013-02-13 11:31:00,
2013-02-13 03:36:00,42.2,41.1,30.40,ENE,77,0.0,0.0,96,0.00,,OVC021,0.00,VWS V14.01,2013-02-13 11:36:00,
2013-02-13 03:41:00,42.3,41.2,30.40,East,85,1.0,1.0,96,0.00,,OVC021,0.00,VWS V14.01,2013-02-13 11:41:00,
2013-02-13 03:46:00,42.1,41.0,30.39,East,89,0.0,0.0,96,0.00,,OVC023,0.00,VWS V14.01,2013-02-13 11:46:00,
2013-02-13 03:51:00,42.0,40.9,30.40,East,88,0.0,1.0,96,0.00,,OVC023,0.00,VWS V14.01,2013-02-13 11:51:00,
2013-02-13 03:56:00,41.8,40.8,30.40,East,89,0.0,0.0,96,0.00,,OVC023,0.00,VWS V14.01,2013-02-13 11:56:00,
2013-02-13 04:01:00,42.1,41.0,30.39,East,89,0.0,0.0,96,0.00,,OVC023,0.00,VWS V14.01,2013-02-13 12:01:00,
2013-02-13 04:06:00,42.0,40.9,30.39,East,88,0.0,0.0,96,0.00,,OVC021,0.00,VWS V14.01,2013-02-13 12:06:00,
2013-02-13 04:10:00,41.9,40.8,30.39,East,88,0.0,0.0,96,0.00,,OVC021,0.00,VWS V14.01,2013-02-13 12:10:00,
2013-02-13 04:15:00,42.3,41.2,30.39,East,89,0.0,0.0,96,0.00,,OVC021,0.00,VWS V14.01,2013-02-13 12:15:00,
2013-02-13 04:20:00,42.4,41.3,30.39,East,88,0.0,0.0,96,0.00,,OVC021,0.00,VWS V14.01,2013-02-13 12:20:00,
2013-02-13 04:25:00,42.9,42.1,30.39,East,88,0.0,0.0,97,0.00,,OVC021,0.00,VWS V14.01,2013-02-13 12:25:00,
2013-02-13 04:30:00,43.2,42.4,30.39,East,88,0.0,0.0,97,0.00,,OVC021,0.00,VWS V14.01,2013-02-13 12:30:00,
2013-02-13 04:35:00,43.0,42.2,30.39,East,88,0.0,0.0,97,0.00,,OVC021,0.00,VWS V14.01,2013-02-13 12:35:00,
2013-02-13 04:40:00,43.0,42.2,30.39,East,88,0.0,0.0,97,0.00,,OVC021,0.00,VWS V14.01,2013-02-13 12:40:00,
2013-02-13 04:45:00,43.0,42.2,30.39,East,88,0.0,1.0,97,0.00,,OVC021,0.00,VWS V14.01,2013-02-13 12:45:00,
2013-02-13 04:50:00,42.7,41.6,30.39,East,88,1.0,2.0,96,0.00,,OVC021,0.00,VWS V14.01,2013-02-13 12:50:00,
2013-02-13 04:55:00,42.8,41.7,30.40,ESE,106,1.0,1.0,96,0.00,,OVC021,0.00,VWS V14.01,2013-02-13 12:55:00,
2013-02-13 05:00:00,42.9,41.8,30.40,ESE,106,0.0,0.0,96,0.00,,OVC021,0.00,VWS V14.01,2013-02-13 13:00:00,
2013-02-13 05:05:00,42.9,41.8,30.40,ESE,106,0.0,0.0,96,0.00,,OVC021,0.00,VWS V14.01,2013-02-13 13:05:00,
2013-02-13 05:10:00,43.2,42.4,30.40,ESE,106,0.0,1.0,97,0.00,,OVC021,0.00,VWS V14.01,2013-02-13 13:10:00,
2013-02-13 05:15:00,43.4,42.6,30.41,ESE,106,0.0,0.0,97,0.00,,OVC021,0.00,VWS V14.01,2013-02-13 13:15:00,
2013-02-13 05:20:00,43.4,42.6,30.41,ESE,107,0.0,0.0,97,0.00,,OVC021,0.00,VWS V14.01,2013-02-13 13:20:00,
2013-02-13 05:25:00,43.5,42.7,30.41,ESE,107,0.0,0.0,97,0.01,,OVC019,0.01,VWS V14.01,2013-02-13 13:25:00,
2013-02-13 05:30:00,43.6,42.8,30.41,SE,142,1.0,1.0,97,0.01,,OVC019,0.01,VWS V14.01,2013-02-13 13:30:00,
2013-02-13 05:35:00,43.7,42.9,30.41,SE,142,0.0,0.0,97,0.01,,OVC019,0.01,VWS V14.01,2013-02-13 13:35:00,
2013-02-13 05:40:00,43.9,43.1,30.41,SE,143,0.0,0.0,97,0.01,,OVC019,0.01,VWS V14.01,2013-02-13 13:40:00,
2013-02-13 05:45:00,44.1,43.3,30.41,SE,141,0.0,0.0,97,0.01,,OVC017,0.01,VWS V14.01,2013-02-13 13:45:00,
2013-02-13 05:50:00,44.2,43.4,30.41,SE,137,0.0,0.0,97,0.01,,OVC017,0.01,VWS V14.01,2013-02-13 13:50:00,
2013-02-13 05:55:00,44.3,43.5,30.41,SE,138,0.0,0.0,97,0.01,,OVC017,0.01,VWS V14.01,2013-02-13 13:55:00,
2013-02-13 06:00:00,44.3,43.5,30.41,SE,137,0.0,0.0,97,0.01,,OVC017,0.01,VWS V14.01,2013-02-13 14:00:00,
2013-02-13 06:05:00,44.3,43.5,30.41,SE,137,0.0,0.0,97,0.01,,OVC015,0.01,VWS V14.01,2013-02-13 14:05:00,
2013-02-13 06:10:00,44.4,43.6,30.41,SE,137,0.0,0.0,97,0.01,,OVC015,0.01,VWS V14.01,2013-02-13 14:10:00,
2013-02-13 06:15:00,44.5,43.7,30.42,SE,137,0.0,0.0,97,0.01,,OVC015,0.01,VWS V14.01,2013-02-13 14:15:00,
2013-02-13 06:20:00,44.7,43.9,30.42,SE,137,0.0,0.0,97,0.01,,OVC015,0.01,VWS V14.01,2013-02-13 14:20:00,
2013-02-13 06:25:00,44.7,43.9,30.42,SE,137,0.0,0.0,97,0.00,,OVC025,0.01,VWS V14.01,2013-02-13 14:25:00,
2013-02-13 06:30:00,44.7,43.9,30.42,SE,137,0.0,0.0,97,0.00,,OVC025,0.01,VWS V14.01,2013-02-13 14:30:00,
2013-02-13 06:35:00,44.7,43.9,30.42,SE,137,0.0,1.0,97,0.00,,OVC025,0.01,VWS V14.01,2013-02-13 14:35:00,
2013-02-13 06:40:00,44.7,43.9,30.42,ESE,108,0.0,1.0,97,0.00,,OVC025,0.01,VWS V14.01,2013-02-13 14:40:00,
2013-02-13 06:45:00,44.6,43.8,30.42,ESE,102,1.0,2.0,97,0.00,,OVC029,0.01,VWS V14.01,2013-02-13 14:45:00,
2013-02-13 06:50:00,44.5,43.7,30.42,ESE,102,0.0,1.0,97,0.00,,OVC029,0.01,VWS V14.01,2013-02-13 14:50:00,
2013-02-13 06:55:00,44.5,43.7,30.42,ESE,102,0.0,0.0,97,0.00,,OVC029,0.01,VWS V14.01,2013-02-13 14:55:00,
2013-02-13 07:00:00,44.4,43.6,30.43,ESE,102,0.0,0.0,97,0.00,,OVC029,0.01,VWS V14.01,2013-02-13 15:00:00,
2013-02-13 07:05:00,44.3,43.2,30.43,ESE,102,0.0,0.0,96,0.00,,OVC031,0.01,VWS V14.01,2013-02-13 15:05:00,
2013-02-13 07:10:00,44.2,43.1,30.43,ESE,102,0.0,0.0,96,0.00,,OVC031,0.01,VWS V14.01,2013-02-13 15:10:00,
2013-02-13 07:15:00,44.1,43.0,30.43,ESE,102,0.0,0.0,96,0.00,,OVC031,0.01,VWS V14.01,2013-02-13 15:15:00,
2013-02-13 07:20:00,44.0,42.9,30.43,ESE,102,0.0,0.0,96,0.00,,OVC031,0.01,VWS V14.01,2013-02-13 15:20:00,
2013-02-13 07:25:00,43.9,42.8,30.44,ESE,102,0.0,0.0,96,0.00,,OVC033,0.01,VWS V14.01,2013-02-13 15:25:00,
2013-02-13 07:30:00,43.8,42.7,30.44,ESE,102,0.0,0.0,96,0.00,,OVC033,0.01,VWS V14.01,2013-02-13 15:30:00,
2013-02-13 07:35:00,43.8,42.7,30.44,ESE,103,0.0,1.0,96,0.00,,OVC033,0.01,VWS V14.01,2013-02-13 15:35:00,
2013-02-13 07:40:00,43.8,42.7,30.44,ESE,102,0.0,1.0,96,0.00,,OVC033,0.01,VWS V14.01,2013-02-13 15:40:00,
2013-02-13 07:45:00,43.9,42.8,30.44,ESE,102,0.0,0.0,96,0.00,,OVC033,0.01,VWS V14.01,2013-02-13 15:45:00,
2013-02-13 07:50:00,43.9,42.8,30.44,ESE,102,0.0,0.0,96,0.00,,OVC033,0.01,VWS V14.01,2013-02-13 15:50:00,
2013-02-13 07:55:00,43.9,42.8,30.44,ESE,103,0.0,0.0,96,0.00,,OVC033,0.01,VWS V14.01,2013-02-13 15:55:00,
2013-02-13 08:00:00,44.0,42.9,30.44,ESE,102,0.0,0.0,96,0.00,,OVC033,0.01,VWS V14.01,2013-02-13 16:00:00,
2013-02-13 08:05:00,44.1,43.0,30.44,ESE,102,0.0,0.0,96,0.00,,OVC035,0.01,VWS V14.01,2013-02-13 16:05:00,
2013-02-13 08:10:00,44.1,43.0,30.45,ESE,102,0.0,0.0,96,0.00,,OVC035,0.01,VWS V14.01,2013-02-13 16:10:00,
2013-02-13 08:15:00,44.2,43.1,30.45,ESE,102,0.0,0.0,96,0.00,,OVC035,0.01,VWS V14.01,2013-02-13 16:15:00,
2013-02-13 08:20:00,44.3,43.5,30.45,ESE,102,0.0,0.0,97,0.00,,OVC035,0.01,VWS V14.01,2013-02-13 16:20:00,
2013-02-13 08:25:00,44.4,43.6,30.45,ESE,102,0.0,0.0,97,0.00,,OVC033,0.01,VWS V14.01,2013-02-13 16:25:00,
2013-02-13 08:30:00,44.6,43.8,30.45,ESE,102,0.0,0.0,97,0.00,,OVC033,0.01,VWS V14.01,2013-02-13 16:30:00,
2013-02-13 08:35:00,44.7,43.9,30.45,ESE,102,0.0,0.0,97,0.00,,OVC033,0.01,VWS V14.01,2013-02-13 16:35:00,
2013-02-13 08:40:00,44.9,44.1,30.45,ESE,102,0.0,0.0,97,0.00,,OVC033,0.01,VWS V14.01,2013-02-13 16:40:00,
2013-02-13 08:45:00,45.0,44.2,30.46,ESE,102,0.0,0.0,97,0.00,,OVC024,0.01,VWS V14.01,2013-02-13 16:45:00,
2013-02-13 08:50:00,45.1,44.3,30.46,ESE,102,0.0,0.0,97,0.00,,OVC024,0.01,VWS V14.01,2013-02-13 16:50:00,
2013-02-13 08:55:00,45.1,44.3,30.46,ESE,102,0.0,0.0,97,0.00,,OVC024,0.01,VWS V14.01,2013-02-13 16:55:00,
2013-02-13 09:00:00,45.2,44.1,30.46,ESE,102,0.0,0.0,96,0.00,,OVC024,0.01,VWS V14.01,2013-02-13 17:00:00,
2013-02-13 09:05:00,45.3,44.5,30.46,ESE,102,0.0,0.0,97,0.00,,OVC024,0.01,VWS V14.01,2013-02-13 17:05:00,
2013-02-13 09:10:00,45.2,44.1,30.46,ESE,102,0.0,0.0,96,0.00,,OVC024,0.01,VWS V14.01,2013-02-13 17:10:00,
2013-02-13 09:15:00,45.3,44.2,30.46,ESE,102,1.0,1.0,96,0.00,,OVC024,0.01,VWS V14.01,2013-02-13 17:15:00,
2013-02-13 09:20:00,45.5,44.4,30.47,ESE,103,0.0,0.0,96,0.00,,OVC024,0.01,VWS V14.01,2013-02-13 17:20:00,
2013-02-13 09:25:00,45.7,44.6,30.47,ESE,103,0.0,0.0,96,0.00,,OVC028,0.01,VWS V14.01,2013-02-13 17:25:00,
2013-02-13 09:30:00,45.9,44.8,30.47,ESE,102,0.0,0.0,96,0.00,,OVC028,0.01,VWS V14.01,2013-02-13 17:30:00,
2013-02-13 09:35:00,46.1,45.0,30.47,ESE,102,0.0,0.0,96,0.00,,OVC028,0.01,VWS V14.01,2013-02-13 17:35:00,
2013-02-13 09:40:00,46.2,45.1,30.47,ESE,103,1.0,1.0,96,0.00,,OVC028,0.01,VWS V14.01,2013-02-13 17:40:00,
2013-02-13 09:45:00,46.3,45.2,30.47,ESE,102,0.0,0.0,96,0.00,,OVC030,0.01,VWS V14.01,2013-02-13 17:45:00,
2013-02-13 09:50:00,46.5,45.2,30.47,ESE,102,0.0,0.0,95,0.00,,OVC030,0.01,VWS V14.01,2013-02-13 17:50:00,
2013-02-13 09:55:00,46.9,45.5,30.47,ESE,102,0.0,0.0,95,0.00,,OVC030,0.01,VWS V14.01,2013-02-13 17:55:00,
2013-02-13 10:00:00,47.2,45.6,30.47,ESE,102,0.0,0.0,94,0.00,,OVC030,0.01,VWS V14.01,2013-02-13 18:00:00,
2013-02-13 10:05:00,47.6,46.0,30.47,ESE,102,0.0,0.0,94,0.00,,OVC032,0.01,VWS V14.01,2013-02-13 18:05:00,
2013-02-13 10:10:00,47.5,45.3,30.47,ESE,108,0.0,1.0,92,0.00,,OVC032,0.01,VWS V14.01,2013-02-13 18:10:00,
2013-02-13 10:15:00,47.5,45.3,30.47,East,82,1.0,1.0,92,0.00,,OVC032,0.01,VWS V14.01,2013-02-13 18:15:00,
2013-02-13 10:20:00,47.5,45.0,30.47,East,93,0.0,2.0,91,0.00,,OVC032,0.01,VWS V14.01,2013-02-13 18:20:00,
2013-02-13 10:25:00,47.3,44.8,30.47,SE,128,2.0,3.0,91,0.00,,OVC032,0.01,VWS V14.01,2013-02-13 18:25:00,
2013-02-13 10:30:00,47.3,44.5,30.47,ESE,109,1.0,1.0,90,0.00,,OVC032,0.01,VWS V14.01,2013-02-13 18:30:00,
2013-02-13 10:35:00,47.4,44.6,30.47,ESE,112,1.0,2.0,90,0.00,,OVC032,0.01,VWS V14.01,2013-02-13 18:35:00,
2013-02-13 10:40:00,47.6,45.1,30.48,ESE,123,2.0,3.0,91,0.00,,OVC032,0.01,VWS V14.01,2013-02-13 18:40:00,
2013-02-13 10:45:00,47.6,44.5,30.47,ESE,104,1.0,3.0,89,0.00,,OVC034,0.01,VWS V14.01,2013-02-13 18:45:00,
2013-02-13 10:50:00,47.7,44.3,30.47,East,99,1.0,2.0,88,0.00,,OVC034,0.01,VWS V14.01,2013-02-13 18:50:00,
2013-02-13 10:55:00,47.8,44.4,30.48,WSW,249,1.0,3.0,88,0.00,,OVC034,0.01,VWS V14.01,2013-02-13 18:55:00,
2013-02-13 11:00:00,48.0,44.9,30.48,SE,135,1.0,1.0,89,0.00,,OVC034,0.01,VWS V14.01,2013-02-13 19:00:00,
2013-02-13 11:05:00,48.0,44.3,30.48,East,98,2.0,2.0,87,0.00,,OVC034,0.01,VWS V14.01,2013-02-13 19:05:00,
2013-02-13 11:10:00,48.0,44.0,30.48,East,101,0.0,2.0,86,0.00,,OVC034,0.01,VWS V14.01,2013-02-13 19:10:00,
2013-02-13 11:15:00,48.4,44.7,30.47,ESE,118,2.0,2.0,87,0.00,,OVC034,0.01,VWS V14.01,2013-02-13 19:15:00,
2013-02-13 11:20:00,48.6,44.3,30.47,ESE,114,1.0,7.0,85,0.00,,OVC034,0.01,VWS V14.01,2013-02-13 19:20:00,
2013-02-13 11:25:00,48.6,44.3,30.47,ESE,119,4.0,4.0,85,0.00,,BKN036,0.01,VWS V14.01,2013-02-13 19:25:00,
2013-02-13 11:30:00,48.5,43.9,30.47,SE,131,1.0,4.0,84,0.00,,BKN036,0.01,VWS V14.01,2013-02-13 19:30:00,
2013-02-13 11:35:00,48.5,43.6,30.47,ESE,106,1.0,3.0,83,0.00,,BKN036,0.01,VWS V14.01,2013-02-13 19:35:00,
2013-02-13 11:40:00,48.7,44.1,30.47,ENE,74,1.0,4.0,84,0.00,,BKN036,0.01,VWS V14.01,2013-02-13 19:40:00,
2013-02-13 11:45:00,48.8,44.2,30.47,East,88,2.0,3.0,84,0.00,,OVC038,0.01,VWS V14.01,2013-02-13 19:45:00,
2013-02-13 11:50:00,48.7,43.5,30.47,East,101,4.0,7.0,82,0.00,,OVC038,0.01,VWS V14.01,2013-02-13 19:50:00,
2013-02-13 11:55:00,48.5,43.6,30.47,East,94,2.0,4.0,83,0.00,,OVC038,0.01,VWS V14.01,2013-02-13 19:55:00,
2013-02-13 12:00:00,48.5,43.3,30.47,ESE,116,4.0,5.0,82,0.00,,OVC038,0.01,VWS V14.01,2013-02-13 20:00:00,
2013-02-13 12:05:00,48.4,43.8,30.47,East,90,0.0,1.0,84,0.00,,OVC036,0.01,VWS V14.01,2013-02-13 20:05:00,
2013-02-13 12:10:00,48.5,43.6,30.46,ESE,112,2.0,5.0,83,0.00,,OVC036,0.01,VWS V14.01,2013-02-13 20:10:00,
2013-02-13 12:15:00,48.5,43.6,30.46,ESE,115,2.0,5.0,83,0.00,,OVC036,0.01,VWS V14.01,2013-02-13 20:15:00,
2013-02-13 12:20:00,48.6,43.7,30.46,East,84,2.0,4.0,83,0.00,,OVC036,0.01,VWS V14.01,2013-02-13 20:20:00,
2013-02-13 12:25:00,48.9,43.7,30.46,ESE,113,2.0,6.0,82,0.00,,OVC036,0.01,VWS V14.01,2013-02-13 20:25:00,
2013-02-13 12:30:00,49.2,44.0,30.47,ESE,105,2.0,3.0,82,0.00,,OVC036,0.01,VWS V14.01,2013-02-13 20:30:00,
2013-02-13 12:35:00,49.4,43.8,30.47,East,99,2.0,8.0,81,0.00,,OVC036,0.01,VWS V14.01,2013-02-13 20:35:00,
2013-02-13 12:40:00,49.2,43.6,30.47,ESE,106,1.0,3.0,81,0.00,,OVC036,0.01,VWS V14.01,2013-02-13 20:40:00,
2013-02-13 12:45:00,49.0,43.4,30.47,ESE,117,0.0,6.0,81,0.00,,OVC036,0.01,VWS V14.01,2013-02-13 20:45:00,
2013-02-13 12:50:00,49.0,43.8,30.46,East,82,1.0,3.0,82,0.00,,OVC036,0.01,VWS V14.01,2013-02-13 20:50:00,
2013-02-13 12:55:00,49.2,44.3,30.46,ESE,102,0.0,0.0,83,0.00,,OVC036,0.01,VWS V14.01,2013-02-13 20:55:00,
2013-02-13 13:00:00,49.4,43.5,30.46,ESE,113,2.0,5.0,80,0.00,,OVC036,0.01,VWS V14.01,2013-02-13 21:00:00,
2013-02-13 13:05:00,49.2,43.3,30.46,East,100,6.0,7.0,80,0.00,,OVC038,0.01,VWS V14.01,2013-02-13 21:05:00,
2013-02-13 13:10:00,49.2,43.6,30.46,ESE,110,3.0,5.0,81,0.00,,OVC038,0.01,VWS V14.01,2013-02-13 21:10:00,
2013-02-13 13:15:00,49.4,43.5,30.46,ESE,104,1.0,6.0,80,0.00,,OVC038,0.01,VWS V14.01,2013-02-13 21:15:00,
2013-02-13 13:20:00,49.8,44.2,30.46,ESE,103,8.0,10.0,81,0.00,,OVC038,0.01,VWS V14.01,2013-02-13 21:20:00,
2013-02-13 13:25:00,49.9,43.0,30.45,East,91,2.0,6.0,77,0.00,,OVC040,0.01,VWS V14.01,2013-02-13 21:25:00,
2013-02-13 13:30:00,50.0,44.4,30.46,SE,130,1.0,3.0,81,0.00,,OVC040,0.01,VWS V14.01,2013-02-13 21:30:00,
2013-02-13 13:35:00,50.3,44.7,30.45,ESE,117,2.0,2.0,81,0.00,,OVC040,0.01,VWS V14.01,2013-02-13 21:35:00,
2013-02-13 13:40:00,50.6,44.0,30.45,ESE,121,5.0,5.0,78,0.00,,OVC040,0.01,VWS V14.01,2013-02-13 21:40:00,
2013-02-13 13:45:00,50.7,44.4,30.45,East,79,1.0,3.0,79,0.00,,BKN090,0.01,VWS V14.01,2013-02-13 21:45:00,
2013-02-13 13:50:00,50.8,43.9,30.45,ESE,111,4.0,9.0,77,0.00,,BKN090,0.01,VWS V14.01,2013-02-13 21:50:00,
2013-02-13 13:55:00,50.7,44.1,30.44,ESE,111,3.0,3.0,78,0.00,,BKN090,0.01,VWS V14.01,2013-02-13 21:55:00,
2013-02-13 14:00:00,50.4,43.1,30.44,East,88,3.0,8.0,76,0.00,,BKN090,0.01,VWS V14.01,2013-02-13 22:00:00,
2013-02-13 14:05:00,50.3,43.7,30.44,East,98,2.0,4.0,78,0.00,,BKN090,0.01,VWS V14.01,2013-02-13 22:05:00,
2013-02-13 14:09:00,50.4,43.1,30.44,ESE,114,2.0,7.0,76,0.00,,BKN090,0.01,VWS V14.01,2013-02-13 22:09:00,
2013-02-13 14:14:00,50.3,43.0,30.44,ESE,105,3.0,9.0,76,0.00,,BKN090,0.01,VWS V14.01,2013-02-13 22:14:00,
2013-02-13 14:19:00,50.3,43.0,30.43,East,82,5.0,5.0,76,0.00,,BKN090,0.01,VWS V14.01,2013-02-13 22:19:00,
2013-02-13 14:24:00,50.5,43.9,30.43,ESE,109,0.0,2.0,78,0.00,,OVC090,0.01,VWS V14.01,2013-02-13 22:24:00,
2013-02-13 14:29:00,50.7,43.8,30.43,South,190,1.0,2.0,77,0.00,,OVC090,0.01,VWS V14.01,2013-02-13 22:29:00,
2013-02-13 14:34:00,50.6,43.7,30.43,ESE,107,1.0,4.0,77,0.00,,OVC090,0.01,VWS V14.01,2013-02-13 22:34:00,
2013-02-13 14:39:00,50.6,43.7,30.44,East,91,3.0,5.0,77,0.00,,OVC090,0.01,VWS V14.01,2013-02-13 22:39:00,
2013-02-13 14:44:00,50.5,44.2,30.44,ESE,117,0.0,3.0,79,0.00,,OVC080,0.01,VWS V14.01,2013-02-13 22:44:00,
2013-02-13 14:49:00,50.6,44.3,30.44,South,184,0.0,1.0,79,0.00,,OVC080,0.01,VWS V14.01,2013-02-13 22:49:00,
2013-02-13 14:54:00,50.8,44.5,30.44,SSE,151,0.0,1.0,79,0.00,,OVC080,0.01,VWS V14.01,2013-02-13 22:54:00,
2013-02-13 14:59:00,50.8,44.5,30.44,ESE,121,2.0,2.0,79,0.00,,OVC080,0.01,VWS V14.01,2013-02-13 22:59:00,
2013-02-13 15:04:00,50.5,43.9,30.44,East,79,1.0,1.0,78,0.00,,OVC080,0.01,VWS V14.01,2013-02-13 23:04:00,
2013-02-13 15:09:00,50.4,44.1,30.44,ESE,120,2.0,2.0,79,0.00,,OVC080,0.01,VWS V14.01,2013-02-13 23:09:00,
2013-02-13 15:14:00,50.1,43.5,30.44,ESE,106,3.0,4.0,78,0.00,,OVC080,0.01,VWS V14.01,2013-02-13 23:14:00,
2013-02-13 15:19:00,50.0,43.4,30.44,ESE,102,2.0,2.0,78,0.00,,OVC080,0.01,VWS V14.01,2013-02-13 23:19:00,
2013-02-13 15:24:00,50.0,43.4,30.44,ESE,109,0.0,5.0,78,0.00,,OVC080,0.01,VWS V14.01,2013-02-13 23:24:00,
2013-02-13 15:29:00,50.1,43.8,30.45,ESE,109,0.0,1.0,79,0.00,,OVC080,0.01,VWS V14.01,2013-02-13 23:29:00,
2013-02-13 15:34:00,50.2,44.0,30.45,ESE,109,0.0,1.0,79,0.00,,OVC080,0.01,VWS V14.01,2013-02-13 23:34:00,
2013-02-13 15:39:00,50.2,43.6,30.45,ESE,111,0.0,1.0,78,0.00,,OVC080,0.01,VWS V14.01,2013-02-13 23:39:00,
2013-02-13 15:44:00,50.2,43.6,30.44,East,82,0.0,2.0,78,0.00,,OVC080,0.01,VWS V14.01,2013-02-13 23:44:00,
2013-02-13 15:49:00,50.2,43.6,30.44,SE,138,0.0,1.0,78,0.00,,OVC080,0.01,VWS V14.01,2013-02-13 23:49:00,
2013-02-13 15:54:00,50.2,43.6,30.45,ESE,122,1.0,2.0,78,0.00,,OVC080,0.01,VWS V14.01,2013-02-13 23:54:00,
2013-02-13 15:59:00,50.0,43.1,30.45,SE,126,0.0,2.0,77,0.00,,OVC080,0.01,VWS V14.01,2013-02-13 23:59:00,
2013-02-13 16:04:00,50.0,43.4,30.44,SE,127,1.0,1.0,78,0.00,,OVC080,0.01,VWS V14.01,2013-02-14 00:04:00,
2013-02-13 16:09:00,49.9,43.3,30.44,East,80,1.0,1.0,78,0.00,,OVC080,0.01,VWS V14.01,2013-02-14 00:09:00,
2013-02-13 16:14:00,49.9,43.0,30.44,East,93,1.0,1.0,77,0.00,,OVC080,0.01,VWS V14.01,2013-02-14 00:14:00,
2013-02-13 16:19:00,49.8,42.5,30.44,ESE,102,1.0,4.0,76,0.00,,OVC080,0.01,VWS V14.01,2013-02-14 00:19:00,
2013-02-13 16:24:00,49.6,42.7,30.44,East,90,0.0,1.0,77,0.00,,OVC070,0.01,VWS V14.01,2013-02-14 00:24:00,
2013-02-13 16:29:00,49.5,42.6,30.44,East,93,0.0,2.0,77,0.00,,OVC070,0.01,VWS V14.01,2013-02-14 00:29:00,
2013-02-13 16:34:00,49.3,42.4,30.44,ESE,107,8.0,8.0,77,0.00,,OVC070,0.01,VWS V14.01,2013-02-14 00:34:00,
2013-02-13 16:39:00,49.1,41.9,30.44,ESE,107,1.0,4.0,76,0.00,,OVC070,0.01,VWS V14.01,2013-02-14 00:39:00,
2013-02-13 16:44:00,48.9,42.0,30.44,East,87,2.0,3.0,77,0.00,,OVC070,0.01,VWS V14.01,2013-02-14 00:44:00,
2013-02-13 16:49:00,48.8,41.9,30.44,ESE,103,2.0,4.0,77,0.00,,OVC070,0.01,VWS V14.01,2013-02-14 00:49:00,
2013-02-13 16:54:00,48.7,41.8,30.44,East,88,2.0,6.0,77,0.00,,OVC070,0.01,VWS V14.01,2013-02-14 00:54:00,
2013-02-13 16:59:00,48.5,42.0,30.44,ESE,107,3.0,4.0,78,0.00,,OVC070,0.01,VWS V14.01,2013-02-14 00:59:00,
2013-02-13 17:04:00,48.4,41.9,30.45,ESE,112,0.0,5.0,78,0.00,,OVC120,0.01,VWS V14.01,2013-02-14 01:04:00,
2013-02-13 17:09:00,48.2,42.0,30.45,ESE,112,0.0,1.0,79,0.00,,OVC120,0.01,VWS V14.01,2013-02-14 01:09:00,
2013-02-13 17:14:00,48.0,42.5,30.45,East,84,1.0,3.0,81,0.00,,OVC120,0.01,VWS V14.01,2013-02-14 01:14:00,
2013-02-13 17:19:00,47.9,42.4,30.46,East,96,0.0,2.0,81,0.00,,OVC120,0.01,VWS V14.01,2013-02-14 01:19:00,
2013-02-13 17:24:00,47.8,42.3,30.46,ESE,107,2.0,3.0,81,0.00,,OVC070,0.01,VWS V14.01,2013-02-14 01:24:00,
2013-02-13 17:29:00,47.7,42.2,30.46,ESE,105,0.0,0.0,81,0.00,,OVC070,0.01,VWS V14.01,2013-02-14 01:29:00,
2013-02-13 17:34:00,47.5,42.3,30.46,East,93,1.0,1.0,82,0.00,,OVC070,0.01,VWS V14.01,2013-02-14 01:34:00,
2013-02-13 17:39:00,47.4,42.2,30.47,East,95,0.0,3.0,82,0.00,,OVC070,0.01,VWS V14.01,2013-02-14 01:39:00,
2013-02-13 17:44:00,47.4,42.2,30.47,ESE,115,4.0,6.0,82,0.00,,OVC070,0.01,VWS V14.01,2013-02-14 01:44:00,
2013-02-13 17:49:00,47.4,42.2,30.46,ESE,111,3.0,5.0,82,0.00,,OVC070,0.01,VWS V14.01,2013-02-14 01:49:00,
2013-02-13 17:54:00,47.3,42.1,30.46,ESE,113,1.0,1.0,82,0.00,,OVC070,0.01,VWS V14.01,2013-02-14 01:54:00,
2013-02-13 17:59:00,47.1,41.9,30.46,ESE,110,2.0,4.0,82,0.00,,OVC070,0.01,VWS V14.01,2013-02-14 01:59:00,
2013-02-13 18:04:00,46.9,41.7,30.46,ESE,109,3.0,3.0,82,0.00,,OVC070,0.01,VWS V14.01,2013-02-14 02:04:00,
2013-02-13 18:09:00,46.8,41.6,30.46,SE,136,1.0,3.0,82,0.00,,OVC070,0.01,VWS V14.01,2013-02-14 02:09:00,
2013-02-13 18:14:00,46.6,41.4,30.46,East,96,0.0,2.0,82,0.00,,OVC070,0.01,VWS V14.01,2013-02-14 02:14:00,
2013-02-13 18:19:00,46.3,41.4,30.46,East,101,0.0,0.0,83,0.00,,OVC070,0.01,VWS V14.01,2013-02-14 02:19:00,
2013-02-13 18:24:00,45.9,41.3,30.46,East,101,0.0,0.0,84,0.00,,BKN070,0.01,VWS V14.01,2013-02-14 02:24:00,
2013-02-13 18:29:00,45.6,41.0,30.46,East,101,0.0,0.0,84,0.00,,BKN070,0.01,VWS V14.01,2013-02-14 02:29:00,
2013-02-13 18:34:00,45.4,41.2,30.46,East,101,0.0,1.0,85,0.00,,BKN070,0.01,VWS V14.01,2013-02-14 02:34:00,
2013-02-13 18:39:00,44.9,41.0,30.46,East,101,0.0,0.0,86,0.00,,BKN070,0.01,VWS V14.01,2013-02-14 02:39:00,
2013-02-13 18:44:00,44.5,40.9,30.46,East,101,0.0,0.0,87,0.00,,BKN120,0.01,VWS V14.01,2013-02-14 02:44:00,
2013-02-13 18:49:00,44.3,40.7,30.46,East,101,0.0,0.0,87,0.00,,BKN120,0.01,VWS V14.01,2013-02-14 02:49:00,
2013-02-13 18:54:00,43.9,40.6,30.46,East,101,0.0,0.0,88,0.00,,BKN120,0.01,VWS V14.01,2013-02-14 02:54:00,
2013-02-13 18:59:00,43.6,40.6,30.46,East,101,0.0,0.0,89,0.00,,BKN120,0.01,VWS V14.01,2013-02-14 02:59:00,
2013-02-13 19:04:00,43.2,40.5,30.46,East,101,0.0,0.0,90,0.00,,BKN120,0.01,VWS V14.01,2013-02-14 03:04:00,
2013-02-13 19:09:00,42.9,40.5,30.46,East,101,1.0,1.0,91,0.00,,BKN120,0.01,VWS V14.01,2013-02-14 03:09:00,
2013-02-13 19:14:00,42.8,40.6,30.47,East,101,0.0,1.0,92,0.00,,BKN120,0.01,VWS V14.01,2013-02-14 03:14:00,
2013-02-13 19:19:00,42.4,40.2,30.47,East,101,0.0,0.0,92,0.00,,BKN120,0.01,VWS V14.01,2013-02-14 03:19:00,
2013-02-13 19:24:00,42.2,40.0,30.47,East,101,0.0,0.0,92,0.00,,CLR,0.01,VWS V14.01,2013-02-14 03:24:00,
2013-02-13 19:29:00,41.8,39.9,30.47,East,101,0.0,1.0,93,0.00,,CLR,0.01,VWS V14.01,2013-02-14 03:29:00,
2013-02-13 19:34:00,41.7,39.8,30.48,East,101,0.0,1.0,93,0.00,,CLR,0.01,VWS V14.01,2013-02-14 03:34:00,
2013-02-13 19:39:00,41.6,40.0,30.48,East,101,0.0,0.0,94,0.00,,CLR,0.01,VWS V14.01,2013-02-14 03:39:00,
2013-02-13 19:44:00,41.6,40.0,30.48,East,101,0.0,0.0,94,0.00,,CLR,0.01,VWS V14.01,2013-02-14 03:44:00,
2013-02-13 19:49:00,41.5,39.9,30.48,East,101,0.0,0.0,94,0.00,,CLR,0.01,VWS V14.01,2013-02-14 03:49:00,
2013-02-13 19:54:00,41.4,39.8,30.48,East,101,0.0,0.0,94,0.00,,CLR,0.01,VWS V14.01,2013-02-14 03:54:00,
2013-02-13 19:59:00,41.3,39.7,30.47,East,101,0.0,1.0,94,0.00,,CLR,0.01,VWS V14.01,2013-02-14 03:59:00,
2013-02-13 20:04:00,41.2,39.6,30.48,East,101,0.0,0.0,94,0.00,,CLR,0.01,VWS V14.01,2013-02-14 04:04:00,
2013-02-13 20:09:00,40.8,39.2,30.48,East,101,1.0,1.0,94,0.00,,CLR,0.01,VWS V14.01,2013-02-14 04:09:00,
2013-02-13 20:14:00,40.7,39.1,30.48,East,101,0.0,0.0,94,0.00,,CLR,0.01,VWS V14.01,2013-02-14 04:14:00,
2013-02-13 20:19:00,40.8,39.2,30.48,NW,309,0.0,0.0,94,0.00,,CLR,0.01,VWS V14.01,2013-02-14 04:19:00,
2013-02-13 20:24:00,40.7,39.1,30.48,NW,309,0.0,0.0,94,0.00,,CLR,0.01,VWS V14.01,2013-02-14 04:24:00,
2013-02-13 20:29:00,40.6,39.0,30.48,NW,310,0.0,0.0,94,0.00,,CLR,0.01,VWS V14.01,2013-02-14 04:29:00,
2013-02-13 20:34:00,40.3,38.7,30.48,NW,310,0.0,1.0,94,0.00,,CLR,0.01,VWS V14.01,2013-02-14 04:34:00,
2013-02-13 20:39:00,40.0,38.4,30.48,NW,310,0.0,0.0,94,0.00,,CLR,0.01,VWS V14.01,2013-02-14 04:39:00,
2013-02-13 20:44:00,39.8,38.5,30.49,NW,309,0.0,0.0,95,0.00,,CLR,0.01,VWS V14.01,2013-02-14 04:44:00,
2013-02-13 20:49:00,39.7,38.4,30.49,NW,309,0.0,0.0,95,0.00,,CLR,0.01,VWS V14.01,2013-02-14 04:49:00,
2013-02-13 20:54:00,39.7,38.4,30.49,NW,310,0.0,0.0,95,0.00,,CLR,0.01,VWS V14.01,2013-02-14 04:54:00,
2013-02-13 20:59:00,39.7,38.4,30.49,NW,309,0.0,0.0,95,0.00,,CLR,0.01,VWS V14.01,2013-02-14 04:59:00,
2013-02-13 21:00:00,39.6,38.3,30.49,NW,311,0.0,0.0,95,0.00,,CLR,0.01,VWS V14.01,2013-02-14 05:00:00,
2013-02-13 21:05:00,39.4,38.1,30.49,NW,310,0.0,0.0,95,0.00,,CLR,0.01,VWS V14.01,2013-02-14 05:05:00,
2013-02-13 21:10:00,39.1,37.8,30.49,NW,310,0.0,0.0,95,0.00,,CLR,0.01,VWS V14.01,2013-02-14 05:10:00,
2013-02-13 21:15:00,38.8,37.5,30.49,NW,309,0.0,0.0,95,0.00,,CLR,0.01,VWS V14.01,2013-02-14 05:15:00,
2013-02-13 21:20:00,38.7,37.4,30.49,NW,310,0.0,0.0,95,0.00,,CLR,0.01,VWS V14.01,2013-02-14 05:20:00,
2013-02-13 21:25:00,38.5,37.2,30.50,NW,310,0.0,0.0,95,0.00,,CLR,0.01,VWS V14.01,2013-02-14 05:25:00,
2013-02-13 21:30:00,38.4,37.1,30.50,NW,310,0.0,0.0,95,0.00,,CLR,0.01,VWS V14.01,2013-02-14 05:30:00,
2013-02-13 21:35:00,38.2,36.9,30.50,NW,309,0.0,0.0,95,0.00,,CLR,0.01,VWS V14.01,2013-02-14 05:35:00,
2013-02-13 21:40:00,38.0,36.7,30.50,NW,309,0.0,0.0,95,0.00,,CLR,0.01,VWS V14.01,2013-02-14 05:40:00,
2013-02-13 21:45:00,38.1,37.1,30.50,NW,309,0.0,0.0,96,0.00,,CLR,0.01,VWS V14.01,2013-02-14 05:45:00,
2013-02-13 21:50:00,37.9,36.9,30.50,NW,309,0.0,0.0,96,0.00,,CLR,0.01,VWS V14.01,2013-02-14 05:50:00,
2013-02-13 21:55:00,37.9,36.9,30.50,NW,310,0.0,0.0,96,0.00,,CLR,0.01,VWS V14.01,2013-02-14 05:55:00,
2013-02-13 22:00:00,37.9,36.9,30.50,NW,309,0.0,0.0,96,0.00,,CLR,0.01,VWS V14.01,2013-02-14 06:00:00,
2013-02-13 22:05:00,37.9,36.9,30.50,NW,310,0.0,0.0,96,0.00,,CLR,0.01,VWS V14.01,2013-02-14 06:05:00,
2013-02-13 22:10:00,37.9,36.9,30.50,NW,310,0.0,0.0,96,0.00,,CLR,0.01,VWS V14.01,2013-02-14 06:10:00,
2013-02-13 22:15:00,37.8,36.8,30.51,NW,310,0.0,0.0,96,0.00,,CLR,0.01,VWS V14.01,2013-02-14 06:15:00,
2013-02-13 22:20:00,37.9,36.9,30.51,NW,309,0.0,0.0,96,0.00,,CLR,0.01,VWS V14.01,2013-02-14 06:20:00,
2013-02-13 22:25:00,37.8,36.8,30.51,NW,310,0.0,0.0,96,0.00,,BKN110,0.01,VWS V14.01,2013-02-14 06:25:00,
2013-02-13 22:30:00,37.7,36.7,30.50,NW,310,0.0,0.0,96,0.00,,BKN110,0.01,VWS V14.01,2013-02-14 06:30:00,
2013-02-13 22:35:00,37.7,36.7,30.50,NW,310,0.0,0.0,96,0.00,,BKN110,0.01,VWS V14.01,2013-02-14 06:35:00,
2013-02-13 22:40:00,37.7,36.7,30.50,NW,309,0.0,0.0,96,0.00,,BKN110,0.01,VWS V14.01,2013-02-14 06:40:00,
2013-02-13 22:45:00,37.7,36.7,30.51,NW,310,0.0,0.0,96,0.00,,OVC110,0.01,VWS V14.01,2013-02-14 06:45:00,
2013-02-13 22:50:00,37.7,36.7,30.51,NW,309,0.0,0.0,96,0.00,,OVC110,0.01,VWS V14.01,2013-02-14 06:50:00,
2013-02-13 22:55:00,37.7,36.7,30.51,NW,309,0.0,0.0,96,0.00,,OVC110,0.01,VWS V14.01,2013-02-14 06:55:00,
2013-02-13 23:00:00,37.6,36.6,30.51,NW,310,0.0,0.0,96,0.00,,OVC110,0.01,VWS V14.01,2013-02-14 07:00:00,
2013-02-13 23:05:00,37.3,36.3,30.51,NW,310,0.0,0.0,96,0.00,,OVC110,0.01,VWS V14.01,2013-02-14 07:05:00,
2013-02-13 23:10:00,37.2,36.2,30.51,NW,310,0.0,0.0,96,0.00,,OVC110,0.01,VWS V14.01,2013-02-14 07:10:00,
2013-02-13 23:15:00,37.1,36.1,30.51,NW,309,0.0,0.0,96,0.00,,OVC110,0.01,VWS V14.01,2013-02-14 07:15:00,
2013-02-13 23:20:00,37.1,36.1,30.51,NW,309,0.0,0.0,96,0.00,,OVC110,0.01,VWS V14.01,2013-02-14 07:20:00,
2013-02-13 23:25:00,37.0,36.0,30.51,NW,309,0.0,0.0,96,0.00,,OVC110,0.01,VWS V14.01,2013-02-14 07:25:00,
2013-02-13 23:30:00,37.0,36.0,30.51,NW,310,0.0,0.0,96,0.00,,OVC110,0.01,VWS V14.01,2013-02-14 07:30:00,
2013-02-13 23:35:00,37.0,36.0,30.51,NW,309,0.0,0.0,96,0.00,,OVC110,0.01,VWS V14.01,2013-02-14 07:35:00,
2013-02-13 23:40:00,36.6,35.6,30.51,NW,309,0.0,0.0,96,0.00,,OVC110,0.01,VWS V14.01,2013-02-14 07:40:00,
2013-02-13 23:45:00,36.2,35.2,30.51,NW,310,0.0,0.0,96,0.00,,SCT110,0.01,VWS V14.01,2013-02-14 07:45:00,
2013-02-13 23:50:00,36.2,35.2,30.51,NW,310,0.0,0.0,96,0.00,,SCT110,0.01,VWS V14.01,2013-02-14 07:50:00,
2013-02-13 23:55:00,36.1,35.1,30.51,NW,310,0.0,0.0,96,0.00,,SCT110,0.01,VWS V14.01,2013-02-14 07:55:00,